sensor_id;sensor_type;location;lat;lon;timestamp;P1;durP1;ratioP1;P2;durP2;ratioP2
62844;SDS011;48929;47.910;20.390;2022-07-03T00:00:03;9.50;;;7.53;;
62844;SDS011;48929;47.910;20.390;2022-07-03T00:02:32;10.27;;;7.50;;
62844;SDS011;48929;47.910;20.390;2022-07-03T00:05:01;9.25;;;7.80;;
62844;SDS011;48929;47.910;20.390;2022-07-03T00:07:31;9.80;;;7.13;;
62844;SDS011;48929;47.910;20.390;2022-07-03T00:09:59;9.18;;;7.35;;
62844;SDS011;48929;47.910;20.390;2022-07-03T00:12:30;10.13;;;7.75;;
62844;SDS011;48929;47.910;20.390;2022-07-03T00:14:58;9.00;;;7.10;;
62844;SDS011;48929;47.910;20.390;2022-07-03T00:17:29;10.73;;;7.00;;
62844;SDS011;48929;47.910;20.390;2022-07-03T00:19:57;11.90;;;7.30;;
62844;SDS011;48929;47.910;20.390;2022-07-03T00:22:26;9.25;;;6.72;;
62844;SDS011;48929;47.910;20.390;2022-07-03T00:24:59;8.95;;;7.50;;
62844;SDS011;48929;47.910;20.390;2022-07-03T00:27:32;8.93;;;7.30;;
62844;SDS011;48929;47.910;20.390;2022-07-03T00:30:03;9.52;;;7.40;;
62844;SDS011;48929;47.910;20.390;2022-07-03T00:32:34;9.02;;;7.22;;
62844;SDS011;48929;47.910;20.390;2022-07-03T00:35:08;8.60;;;7.32;;
62844;SDS011;48929;47.910;20.390;2022-07-03T00:37:37;8.38;;;6.95;;
62844;SDS011;48929;47.910;20.390;2022-07-03T00:40:06;10.07;;;7.20;;
62844;SDS011;48929;47.910;20.390;2022-07-03T00:42:38;10.52;;;7.40;;
62844;SDS011;48929;47.910;20.390;2022-07-03T00:45:07;9.25;;;7.47;;
62844;SDS011;48929;47.910;20.390;2022-07-03T00:47:36;10.20;;;7.45;;
62844;SDS011;48929;47.910;20.390;2022-07-03T00:50:07;8.45;;;7.30;;
62844;SDS011;48929;47.910;20.390;2022-07-03T00:52:37;8.82;;;7.25;;
62844;SDS011;48929;47.910;20.390;2022-07-03T00:55:07;8.45;;;7.15;;
62844;SDS011;48929;47.910;20.390;2022-07-03T00:57:45;9.48;;;7.03;;
62844;SDS011;48929;47.910;20.390;2022-07-03T01:00:16;9.10;;;7.38;;
62844;SDS011;48929;47.910;20.390;2022-07-03T01:02:51;7.60;;;6.70;;
62844;SDS011;48929;47.910;20.390;2022-07-03T01:05:26;10.75;;;7.18;;
62844;SDS011;48929;47.910;20.390;2022-07-03T01:08:00;8.70;;;6.80;;
62844;SDS011;48929;47.910;20.390;2022-07-03T01:10:37;9.38;;;7.20;;
62844;SDS011;48929;47.910;20.390;2022-07-03T01:13:17;9.27;;;6.95;;
62844;SDS011;48929;47.910;20.390;2022-07-03T01:15:52;10.70;;;7.43;;
62844;SDS011;48929;47.910;20.390;2022-07-03T01:18:34;8.73;;;7.15;;
62844;SDS011;48929;47.910;20.390;2022-07-03T01:21:07;9.57;;;7.70;;
62844;SDS011;48929;47.910;20.390;2022-07-03T01:23:47;9.23;;;7.30;;
62844;SDS011;48929;47.910;20.390;2022-07-03T01:26:33;8.68;;;7.40;;
62844;SDS011;48929;47.910;20.390;2022-07-03T01:29:07;9.45;;;7.25;;
62844;SDS011;48929;47.910;20.390;2022-07-03T01:31:37;10.30;;;7.70;;
62844;SDS011;48929;47.910;20.390;2022-07-03T01:34:09;9.57;;;7.40;;
62844;SDS011;48929;47.910;20.390;2022-07-03T01:36:42;10.93;;;7.53;;
62844;SDS011;48929;47.910;20.390;2022-07-03T01:39:11;8.68;;;7.18;;
62844;SDS011;48929;47.910;20.390;2022-07-03T01:49:02;10.82;;;7.35;;
62844;SDS011;48929;47.910;20.390;2022-07-03T01:51:51;9.68;;;7.78;;
62844;SDS011;48929;47.910;20.390;2022-07-03T01:57:44;10.82;;;7.05;;
62844;SDS011;48929;47.910;20.390;2022-07-03T02:00:37;11.93;;;7.50;;
62844;SDS011;48929;47.910;20.390;2022-07-03T02:07:35;9.43;;;7.32;;
62844;SDS011;48929;47.910;20.390;2022-07-03T02:14:23;9.23;;;7.25;;
62844;SDS011;48929;47.910;20.390;2022-07-03T02:17:12;9.68;;;7.13;;
62844;SDS011;48929;47.910;20.390;2022-07-03T02:23:52;10.52;;;7.13;;
62844;SDS011;48929;47.910;20.390;2022-07-03T02:26:53;10.02;;;7.30;;
62844;SDS011;48929;47.910;20.390;2022-07-03T02:30:55;9.20;;;7.75;;
62844;SDS011;48929;47.910;20.390;2022-07-03T02:33:45;11.15;;;8.00;;
62844;SDS011;48929;47.910;20.390;2022-07-03T02:36:22;9.82;;;7.32;;
62844;SDS011;48929;47.910;20.390;2022-07-03T02:38:58;9.23;;;7.03;;
62844;SDS011;48929;47.910;20.390;2022-07-03T02:41:28;10.80;;;7.85;;
62844;SDS011;48929;47.910;20.390;2022-07-03T02:44:02;10.15;;;7.55;;
62844;SDS011;48929;47.910;20.390;2022-07-03T02:46:50;9.90;;;7.60;;
62844;SDS011;48929;47.910;20.390;2022-07-03T02:49:33;11.07;;;7.75;;
62844;SDS011;48929;47.910;20.390;2022-07-03T02:57:37;9.43;;;7.80;;
62844;SDS011;48929;47.910;20.390;2022-07-03T03:00:07;10.68;;;7.78;;
62844;SDS011;48929;47.910;20.390;2022-07-03T03:05:26;10.05;;;7.47;;
62844;SDS011;48929;47.910;20.390;2022-07-03T03:08:01;10.35;;;8.15;;
62844;SDS011;48929;47.910;20.390;2022-07-03T03:10:34;10.00;;;8.05;;
62844;SDS011;48929;47.910;20.390;2022-07-03T03:13:06;10.25;;;7.90;;
62844;SDS011;48929;47.910;20.390;2022-07-03T03:15:37;10.50;;;8.00;;
62844;SDS011;48929;47.910;20.390;2022-07-03T03:18:07;10.55;;;7.50;;
62844;SDS011;48929;47.910;20.390;2022-07-03T03:20:39;10.70;;;8.07;;
62844;SDS011;48929;47.910;20.390;2022-07-03T03:23:21;10.67;;;8.13;;
62844;SDS011;48929;47.910;20.390;2022-07-03T03:25:58;10.57;;;8.23;;
62844;SDS011;48929;47.910;20.390;2022-07-03T03:28:26;11.05;;;8.02;;
62844;SDS011;48929;47.910;20.390;2022-07-03T03:30:56;12.07;;;7.80;;
62844;SDS011;48929;47.910;20.390;2022-07-03T03:33:25;10.73;;;8.13;;
62844;SDS011;48929;47.910;20.390;2022-07-03T03:35:54;11.68;;;7.95;;
62844;SDS011;48929;47.910;20.390;2022-07-03T03:38:25;11.02;;;8.68;;
62844;SDS011;48929;47.910;20.390;2022-07-03T03:40:54;9.90;;;8.07;;
62844;SDS011;48929;47.910;20.390;2022-07-03T03:43:23;11.85;;;7.63;;
62844;SDS011;48929;47.910;20.390;2022-07-03T03:45:52;9.25;;;7.93;;
62844;SDS011;48929;47.910;20.390;2022-07-03T03:48:24;11.13;;;8.00;;
62844;SDS011;48929;47.910;20.390;2022-07-03T03:50:53;13.18;;;8.48;;
62844;SDS011;48929;47.910;20.390;2022-07-03T03:53:22;10.98;;;8.00;;
62844;SDS011;48929;47.910;20.390;2022-07-03T03:56:01;10.30;;;8.00;;
62844;SDS011;48929;47.910;20.390;2022-07-03T03:58:32;10.77;;;7.53;;
62844;SDS011;48929;47.910;20.390;2022-07-03T04:01:05;11.93;;;8.35;;
62844;SDS011;48929;47.910;20.390;2022-07-03T04:03:38;11.20;;;8.48;;
62844;SDS011;48929;47.910;20.390;2022-07-03T04:06:07;11.93;;;8.15;;
62844;SDS011;48929;47.910;20.390;2022-07-03T04:08:38;10.77;;;8.43;;
62844;SDS011;48929;47.910;20.390;2022-07-03T04:11:06;12.63;;;7.88;;
62844;SDS011;48929;47.910;20.390;2022-07-03T04:13:35;8.80;;;7.60;;
62844;SDS011;48929;47.910;20.390;2022-07-03T04:16:06;10.23;;;8.13;;
62844;SDS011;48929;47.910;20.390;2022-07-03T04:18:35;9.85;;;8.00;;
62844;SDS011;48929;47.910;20.390;2022-07-03T04:21:04;10.70;;;7.93;;
62844;SDS011;48929;47.910;20.390;2022-07-03T04:23:33;10.23;;;8.35;;
62844;SDS011;48929;47.910;20.390;2022-07-03T04:26:06;10.77;;;7.93;;
62844;SDS011;48929;47.910;20.390;2022-07-03T04:28:41;9.95;;;7.85;;
62844;SDS011;48929;47.910;20.390;2022-07-03T04:31:10;9.80;;;7.82;;
62844;SDS011;48929;47.910;20.390;2022-07-03T04:33:39;10.20;;;7.95;;
62844;SDS011;48929;47.910;20.390;2022-07-03T04:36:13;11.40;;;7.97;;
62844;SDS011;48929;47.910;20.390;2022-07-03T04:38:42;9.55;;;7.82;;
62844;SDS011;48929;47.910;20.390;2022-07-03T04:41:13;10.40;;;8.02;;
62844;SDS011;48929;47.910;20.390;2022-07-03T04:43:45;10.75;;;8.05;;
62844;SDS011;48929;47.910;20.390;2022-07-03T04:46:16;10.20;;;8.00;;
62844;SDS011;48929;47.910;20.390;2022-07-03T04:48:45;9.48;;;8.20;;
62844;SDS011;48929;47.910;20.390;2022-07-03T04:51:14;13.50;;;8.48;;
62844;SDS011;48929;47.910;20.390;2022-07-03T04:53:42;11.88;;;8.20;;
62844;SDS011;48929;47.910;20.390;2022-07-03T04:56:13;11.18;;;8.15;;
62844;SDS011;48929;47.910;20.390;2022-07-03T04:58:42;11.18;;;7.65;;
62844;SDS011;48929;47.910;20.390;2022-07-03T05:01:11;11.98;;;7.82;;
62844;SDS011;48929;47.910;20.390;2022-07-03T05:03:40;9.18;;;7.60;;
62844;SDS011;48929;47.910;20.390;2022-07-03T05:06:08;10.55;;;7.90;;
62844;SDS011;48929;47.910;20.390;2022-07-03T05:08:37;12.40;;;7.97;;
62844;SDS011;48929;47.910;20.390;2022-07-03T05:11:24;9.25;;;7.55;;
62844;SDS011;48929;47.910;20.390;2022-07-03T05:13:53;10.10;;;7.70;;
62844;SDS011;48929;47.910;20.390;2022-07-03T05:16:22;9.43;;;7.82;;
62844;SDS011;48929;47.910;20.390;2022-07-03T05:18:51;10.40;;;7.63;;
62844;SDS011;48929;47.910;20.390;2022-07-03T05:21:19;9.38;;;7.60;;
62844;SDS011;48929;47.910;20.390;2022-07-03T05:23:48;8.60;;;7.57;;
62844;SDS011;48929;47.910;20.390;2022-07-03T05:26:17;9.55;;;7.47;;
62844;SDS011;48929;47.910;20.390;2022-07-03T05:28:48;10.23;;;8.02;;
62844;SDS011;48929;47.910;20.390;2022-07-03T05:31:16;10.02;;;7.68;;
62844;SDS011;48929;47.910;20.390;2022-07-03T05:33:45;13.02;;;7.40;;
62844;SDS011;48929;47.910;20.390;2022-07-03T05:36:14;10.57;;;7.75;;
62844;SDS011;48929;47.910;20.390;2022-07-03T05:38:43;9.75;;;7.53;;
62844;SDS011;48929;47.910;20.390;2022-07-03T05:41:28;12.67;;;7.30;;
62844;SDS011;48929;47.910;20.390;2022-07-03T05:43:58;9.48;;;7.22;;
62844;SDS011;48929;47.910;20.390;2022-07-03T05:46:27;8.98;;;7.45;;
62844;SDS011;48929;47.910;20.390;2022-07-03T05:48:56;10.15;;;7.25;;
62844;SDS011;48929;47.910;20.390;2022-07-03T05:51:24;9.25;;;7.57;;
62844;SDS011;48929;47.910;20.390;2022-07-03T05:53:56;7.68;;;6.85;;
62844;SDS011;48929;47.910;20.390;2022-07-03T05:56:27;9.40;;;7.20;;
62844;SDS011;48929;47.910;20.390;2022-07-03T05:58:55;8.73;;;7.43;;
62844;SDS011;48929;47.910;20.390;2022-07-03T06:01:25;9.70;;;7.22;;
62844;SDS011;48929;47.910;20.390;2022-07-03T06:03:54;8.27;;;7.45;;
62844;SDS011;48929;47.910;20.390;2022-07-03T06:06:23;9.80;;;7.60;;
62844;SDS011;48929;47.910;20.390;2022-07-03T06:08:52;9.85;;;7.40;;
62844;SDS011;48929;47.910;20.390;2022-07-03T06:11:20;9.65;;;7.10;;
62844;SDS011;48929;47.910;20.390;2022-07-03T06:13:52;10.07;;;7.30;;
62844;SDS011;48929;47.910;20.390;2022-07-03T06:16:21;10.50;;;7.45;;
62844;SDS011;48929;47.910;20.390;2022-07-03T06:18:51;8.77;;;7.43;;
62844;SDS011;48929;47.910;20.390;2022-07-03T06:21:19;8.88;;;6.93;;
62844;SDS011;48929;47.910;20.390;2022-07-03T06:24:01;8.55;;;7.25;;
62844;SDS011;48929;47.910;20.390;2022-07-03T06:26:30;8.38;;;7.05;;
62844;SDS011;48929;47.910;20.390;2022-07-03T06:28:59;8.50;;;7.13;;
62844;SDS011;48929;47.910;20.390;2022-07-03T06:31:27;10.20;;;7.35;;
62844;SDS011;48929;47.910;20.390;2022-07-03T06:33:59;8.85;;;6.93;;
62844;SDS011;48929;47.910;20.390;2022-07-03T06:36:28;7.90;;;7.07;;
62844;SDS011;48929;47.910;20.390;2022-07-03T06:38:59;8.73;;;7.53;;
62844;SDS011;48929;47.910;20.390;2022-07-03T06:41:28;8.13;;;7.30;;
62844;SDS011;48929;47.910;20.390;2022-07-03T06:43:57;9.43;;;7.03;;
62844;SDS011;48929;47.910;20.390;2022-07-03T06:46:26;8.32;;;7.53;;
62844;SDS011;48929;47.910;20.390;2022-07-03T06:48:54;7.97;;;7.10;;
62844;SDS011;48929;47.910;20.390;2022-07-03T06:51:27;7.68;;;6.82;;
62844;SDS011;48929;47.910;20.390;2022-07-03T06:53:56;8.95;;;6.55;;
62844;SDS011;48929;47.910;20.390;2022-07-03T07:01:06;9.02;;;6.70;;
62844;SDS011;48929;47.910;20.390;2022-07-03T07:03:37;9.20;;;7.07;;
62844;SDS011;48929;47.910;20.390;2022-07-03T07:06:06;10.15;;;7.20;;
62844;SDS011;48929;47.910;20.390;2022-07-03T07:08:36;8.00;;;6.90;;
62844;SDS011;48929;47.910;20.390;2022-07-03T07:11:04;7.85;;;7.05;;
62844;SDS011;48929;47.910;20.390;2022-07-03T07:13:33;11.18;;;7.68;;
62844;SDS011;48929;47.910;20.390;2022-07-03T07:16:01;9.05;;;7.43;;
62844;SDS011;48929;47.910;20.390;2022-07-03T07:18:30;8.55;;;6.85;;
62844;SDS011;48929;47.910;20.390;2022-07-03T07:20:59;8.80;;;7.32;;
62844;SDS011;48929;47.910;20.390;2022-07-03T07:23:30;8.27;;;7.25;;
62844;SDS011;48929;47.910;20.390;2022-07-03T07:26:02;7.80;;;7.00;;
62844;SDS011;48929;47.910;20.390;2022-07-03T07:28:33;9.40;;;7.00;;
62844;SDS011;48929;47.910;20.390;2022-07-03T07:31:02;9.27;;;7.10;;
62844;SDS011;48929;47.910;20.390;2022-07-03T07:33:31;8.55;;;7.15;;
62844;SDS011;48929;47.910;20.390;2022-07-03T07:36:01;9.40;;;6.93;;
62844;SDS011;48929;47.910;20.390;2022-07-03T07:38:30;9.75;;;7.20;;
62844;SDS011;48929;47.910;20.390;2022-07-03T07:41:00;8.20;;;6.90;;
62844;SDS011;48929;47.910;20.390;2022-07-03T07:43:32;8.07;;;6.82;;
62844;SDS011;48929;47.910;20.390;2022-07-03T07:46:00;8.45;;;7.03;;
62844;SDS011;48929;47.910;20.390;2022-07-03T07:48:36;8.60;;;6.90;;
62844;SDS011;48929;47.910;20.390;2022-07-03T07:51:08;8.65;;;6.70;;
62844;SDS011;48929;47.910;20.390;2022-07-03T07:53:36;7.45;;;6.68;;
62844;SDS011;48929;47.910;20.390;2022-07-03T07:56:13;8.35;;;6.95;;
62844;SDS011;48929;47.910;20.390;2022-07-03T07:58:42;9.10;;;7.10;;
62844;SDS011;48929;47.910;20.390;2022-07-03T08:01:11;8.55;;;6.70;;
62844;SDS011;48929;47.910;20.390;2022-07-03T08:04:00;8.75;;;7.00;;
62844;SDS011;48929;47.910;20.390;2022-07-03T08:07:00;9.13;;;7.15;;
62844;SDS011;48929;47.910;20.390;2022-07-03T08:09:43;12.32;;;6.97;;
62844;SDS011;48929;47.910;20.390;2022-07-03T08:15:12;7.40;;;6.70;;
62844;SDS011;48929;47.910;20.390;2022-07-03T08:17:55;10.02;;;6.65;;
62844;SDS011;48929;47.910;20.390;2022-07-03T08:20:23;7.88;;;6.70;;
62844;SDS011;48929;47.910;20.390;2022-07-03T08:22:53;7.40;;;6.55;;
62844;SDS011;48929;47.910;20.390;2022-07-03T08:25:35;8.32;;;6.65;;
62844;SDS011;48929;47.910;20.390;2022-07-03T08:40:21;13.00;;;9.82;;
62844;SDS011;48929;47.910;20.390;2022-07-03T08:43:17;8.15;;;7.15;;
62844;SDS011;48929;47.910;20.390;2022-07-03T08:45:54;9.50;;;7.25;;
62844;SDS011;48929;47.910;20.390;2022-07-03T08:48:25;8.07;;;7.28;;
62844;SDS011;48929;47.910;20.390;2022-07-03T08:50:56;8.98;;;7.90;;
62844;SDS011;48929;47.910;20.390;2022-07-03T08:53:28;8.77;;;7.45;;
62844;SDS011;48929;47.910;20.390;2022-07-03T08:55:59;8.90;;;7.20;;
62844;SDS011;48929;47.910;20.390;2022-07-03T08:58:35;8.40;;;7.13;;
62844;SDS011;48929;47.910;20.390;2022-07-03T09:01:04;8.38;;;6.85;;
62844;SDS011;48929;47.910;20.390;2022-07-03T09:03:35;8.18;;;6.72;;
62844;SDS011;48929;47.910;20.390;2022-07-03T09:06:07;9.43;;;6.50;;
62844;SDS011;48929;47.910;20.390;2022-07-03T09:08:38;10.52;;;7.05;;
62844;SDS011;48929;47.910;20.390;2022-07-03T09:11:09;7.50;;;6.63;;
62844;SDS011;48929;47.910;20.390;2022-07-03T09:13:41;7.93;;;6.75;;
62844;SDS011;48929;47.910;20.390;2022-07-03T09:16:15;8.38;;;6.38;;
62844;SDS011;48929;47.910;20.390;2022-07-03T09:18:49;7.93;;;6.75;;
62844;SDS011;48929;47.910;20.390;2022-07-03T09:30:18;10.30;;;6.05;;
62844;SDS011;48929;47.910;20.390;2022-07-03T09:37:52;6.13;;;5.53;;
62844;SDS011;48929;47.910;20.390;2022-07-03T09:40:46;6.75;;;5.43;;
62844;SDS011;48929;47.910;20.390;2022-07-03T09:43:24;7.55;;;5.40;;
62844;SDS011;48929;47.910;20.390;2022-07-03T09:45:56;6.68;;;5.15;;
62844;SDS011;48929;47.910;20.390;2022-07-03T09:48:31;6.20;;;5.45;;
62844;SDS011;48929;47.910;20.390;2022-07-03T09:51:14;7.10;;;5.32;;
62844;SDS011;48929;47.910;20.390;2022-07-03T09:54:00;10.13;;;4.95;;
62844;SDS011;48929;47.910;20.390;2022-07-03T09:56:33;5.70;;;5.15;;
62844;SDS011;48929;47.910;20.390;2022-07-03T09:59:40;5.63;;;4.90;;
62844;SDS011;48929;47.910;20.390;2022-07-03T10:02:22;5.72;;;5.13;;
62844;SDS011;48929;47.910;20.390;2022-07-03T10:05:10;5.85;;;4.95;;
62844;SDS011;48929;47.910;20.390;2022-07-03T10:07:49;8.40;;;5.30;;
62844;SDS011;48929;47.910;20.390;2022-07-03T10:10:20;6.55;;;5.20;;
62844;SDS011;48929;47.910;20.390;2022-07-03T10:12:51;7.55;;;5.82;;
62844;SDS011;48929;47.910;20.390;2022-07-03T10:16:05;8.77;;;5.82;;
62844;SDS011;48929;47.910;20.390;2022-07-03T10:18:35;6.32;;;5.35;;
62844;SDS011;48929;47.910;20.390;2022-07-03T10:21:06;7.05;;;5.15;;
62844;SDS011;48929;47.910;20.390;2022-07-03T10:23:35;7.13;;;5.43;;
62844;SDS011;48929;47.910;20.390;2022-07-03T10:26:10;7.35;;;6.03;;
62844;SDS011;48929;47.910;20.390;2022-07-03T10:33:20;8.68;;;5.25;;
62844;SDS011;48929;47.910;20.390;2022-07-03T10:36:57;6.20;;;5.57;;
62844;SDS011;48929;47.910;20.390;2022-07-03T10:39:55;6.40;;;5.55;;
62844;SDS011;48929;47.910;20.390;2022-07-03T10:43:11;6.35;;;5.40;;
62844;SDS011;48929;47.910;20.390;2022-07-03T10:54:58;6.22;;;5.50;;
62844;SDS011;48929;47.910;20.390;2022-07-03T10:57:37;6.93;;;5.25;;
62844;SDS011;48929;47.910;20.390;2022-07-03T11:00:15;6.20;;;5.07;;
62844;SDS011;48929;47.910;20.390;2022-07-03T11:13:16;6.78;;;5.88;;
62844;SDS011;48929;47.910;20.390;2022-07-03T11:16:26;8.20;;;6.28;;
62844;SDS011;48929;47.910;20.390;2022-07-03T11:20:58;8.02;;;5.78;;
62844;SDS011;48929;47.910;20.390;2022-07-03T11:23:10;8.55;;;5.88;;
62844;SDS011;48929;47.910;20.390;2022-07-03T11:43:58;7.75;;;5.85;;
62844;SDS011;48929;47.910;20.390;2022-07-03T11:46:52;7.10;;;5.30;;
62844;SDS011;48929;47.910;20.390;2022-07-03T11:49:49;8.15;;;5.93;;
62844;SDS011;48929;47.910;20.390;2022-07-03T11:52:41;6.88;;;5.90;;
62844;SDS011;48929;47.910;20.390;2022-07-03T12:08:34;6.65;;;5.93;;
62844;SDS011;48929;47.910;20.390;2022-07-03T12:15:17;7.50;;;5.90;;
62844;SDS011;48929;47.910;20.390;2022-07-03T13:28:41;8.07;;;5.20;;
62844;SDS011;48929;47.910;20.390;2022-07-03T13:44:57;9.70;;;5.10;;
62844;SDS011;48929;47.910;20.390;2022-07-03T13:49:59;6.78;;;5.20;;
62844;SDS011;48929;47.910;20.390;2022-07-03T13:56:11;5.63;;;4.90;;
62844;SDS011;48929;47.910;20.390;2022-07-03T13:59:41;8.15;;;4.70;;
62844;SDS011;48929;47.910;20.390;2022-07-03T14:03:18;6.68;;;4.85;;
62844;SDS011;48929;47.910;20.390;2022-07-03T14:06:11;5.95;;;4.60;;
62844;SDS011;48929;47.910;20.390;2022-07-03T14:09:37;6.70;;;4.55;;
62844;SDS011;48929;47.910;20.390;2022-07-03T14:13:42;5.22;;;4.50;;
62844;SDS011;48929;47.910;20.390;2022-07-03T14:31:57;5.38;;;4.50;;
62844;SDS011;48929;47.910;20.390;2022-07-03T14:35:09;6.13;;;4.70;;
62844;SDS011;48929;47.910;20.390;2022-07-03T14:37:45;5.43;;;4.35;;
62844;SDS011;48929;47.910;20.390;2022-07-03T14:40:43;7.82;;;4.80;;
62844;SDS011;48929;47.910;20.390;2022-07-03T14:44:09;8.87;;;4.40;;
62844;SDS011;48929;47.910;20.390;2022-07-03T14:47:45;5.70;;;4.47;;
62844;SDS011;48929;47.910;20.390;2022-07-03T14:51:11;6.45;;;4.22;;
62844;SDS011;48929;47.910;20.390;2022-07-03T14:57:30;7.35;;;4.22;;
62844;SDS011;48929;47.910;20.390;2022-07-03T15:04:26;6.20;;;4.20;;
62844;SDS011;48929;47.910;20.390;2022-07-03T15:07:52;5.38;;;4.05;;
62844;SDS011;48929;47.910;20.390;2022-07-03T15:10:54;5.90;;;4.45;;
62844;SDS011;48929;47.910;20.390;2022-07-03T15:14:37;6.65;;;4.40;;
62844;SDS011;48929;47.910;20.390;2022-07-03T15:17:45;11.75;;;4.43;;
62844;SDS011;48929;47.910;20.390;2022-07-03T15:20:18;6.22;;;4.47;;
62844;SDS011;48929;47.910;20.390;2022-07-03T15:33:59;5.75;;;4.32;;
62844;SDS011;48929;47.910;20.390;2022-07-03T15:36:48;5.05;;;3.80;;
62844;SDS011;48929;47.910;20.390;2022-07-03T15:39:37;5.68;;;3.92;;
62844;SDS011;48929;47.910;20.390;2022-07-03T15:42:20;5.68;;;3.70;;
62844;SDS011;48929;47.910;20.390;2022-07-03T15:49:34;3.78;;;3.00;;
62844;SDS011;48929;47.910;20.390;2022-07-03T16:12:34;6.47;;;3.50;;
62844;SDS011;48929;47.910;20.390;2022-07-03T16:15:51;4.32;;;3.13;;
62844;SDS011;48929;47.910;20.390;2022-07-03T16:21:50;6.70;;;3.30;;
62844;SDS011;48929;47.910;20.390;2022-07-03T16:25:03;3.92;;;3.22;;
62844;SDS011;48929;47.910;20.390;2022-07-03T16:28:58;4.22;;;3.30;;
62844;SDS011;48929;47.910;20.390;2022-07-03T16:31:39;5.15;;;3.70;;
62844;SDS011;48929;47.910;20.390;2022-07-03T16:39:35;6.32;;;3.55;;
62844;SDS011;48929;47.910;20.390;2022-07-03T16:42:44;4.53;;;3.50;;
62844;SDS011;48929;47.910;20.390;2022-07-03T16:46:20;6.35;;;3.50;;
62844;SDS011;48929;47.910;20.390;2022-07-03T16:49:40;3.92;;;3.50;;
62844;SDS011;48929;47.910;20.390;2022-07-03T16:52:25;4.28;;;3.80;;
62844;SDS011;48929;47.910;20.390;2022-07-03T16:55:52;5.60;;;3.40;;
62844;SDS011;48929;47.910;20.390;2022-07-03T17:02:35;5.50;;;3.40;;
62844;SDS011;48929;47.910;20.390;2022-07-03T17:06:14;5.20;;;3.25;;
62844;SDS011;48929;47.910;20.390;2022-07-03T17:08:42;4.47;;;3.30;;
62844;SDS011;48929;47.910;20.390;2022-07-03T17:13:12;4.45;;;3.22;;
62844;SDS011;48929;47.910;20.390;2022-07-03T17:18:55;4.80;;;3.10;;
62844;SDS011;48929;47.910;20.390;2022-07-03T17:21:58;5.97;;;3.10;;
62844;SDS011;48929;47.910;20.390;2022-07-03T17:29:27;4.13;;;3.10;;
62844;SDS011;48929;47.910;20.390;2022-07-03T17:32:36;3.88;;;3.00;;
62844;SDS011;48929;47.910;20.390;2022-07-03T17:35:32;4.55;;;3.20;;
62844;SDS011;48929;47.910;20.390;2022-07-03T17:38:37;3.65;;;3.05;;
62844;SDS011;48929;47.910;20.390;2022-07-03T17:49:12;4.10;;;2.80;;
62844;SDS011;48929;47.910;20.390;2022-07-03T18:04:08;6.50;;;3.20;;
62844;SDS011;48929;47.910;20.390;2022-07-03T18:07:11;4.13;;;2.85;;
62844;SDS011;48929;47.910;20.390;2022-07-03T18:10:53;5.18;;;3.00;;
62844;SDS011;48929;47.910;20.390;2022-07-03T18:14:22;4.13;;;2.88;;
62844;SDS011;48929;47.910;20.390;2022-07-03T18:20:43;3.70;;;2.80;;
62844;SDS011;48929;47.910;20.390;2022-07-03T18:24:41;3.92;;;2.85;;
62844;SDS011;48929;47.910;20.390;2022-07-03T18:32:01;3.70;;;2.70;;
62844;SDS011;48929;47.910;20.390;2022-07-03T18:35:43;5.45;;;3.80;;
62844;SDS011;48929;47.910;20.390;2022-07-03T18:43:56;4.35;;;2.80;;
62844;SDS011;48929;47.910;20.390;2022-07-03T18:49:40;5.93;;;2.78;;
62844;SDS011;48929;47.910;20.390;2022-07-03T18:51:41;4.85;;;3.13;;
62844;SDS011;48929;47.910;20.390;2022-07-03T18:53:55;5.43;;;2.88;;
62844;SDS011;48929;47.910;20.390;2022-07-03T18:56:58;7.60;;;4.55;;
62844;SDS011;48929;47.910;20.390;2022-07-03T18:59:45;6.30;;;3.50;;
62844;SDS011;48929;47.910;20.390;2022-07-03T19:02:20;5.53;;;3.10;;
62844;SDS011;48929;47.910;20.390;2022-07-03T19:04:55;4.10;;;2.83;;
62844;SDS011;48929;47.910;20.390;2022-07-03T19:07:30;6.32;;;3.47;;
62844;SDS011;48929;47.910;20.390;2022-07-03T19:10:04;9.23;;;3.45;;
62844;SDS011;48929;47.910;20.390;2022-07-03T19:12:38;4.45;;;3.38;;
62844;SDS011;48929;47.910;20.390;2022-07-03T19:15:12;4.90;;;3.55;;
62844;SDS011;48929;47.910;20.390;2022-07-03T19:17:50;6.53;;;3.28;;
62844;SDS011;48929;47.910;20.390;2022-07-03T19:20:19;4.85;;;3.20;;
62844;SDS011;48929;47.910;20.390;2022-07-03T19:22:48;4.80;;;3.20;;
62844;SDS011;48929;47.910;20.390;2022-07-03T19:25:17;4.82;;;3.05;;
62844;SDS011;48929;47.910;20.390;2022-07-03T19:27:46;5.35;;;3.10;;
62844;SDS011;48929;47.910;20.390;2022-07-03T19:30:21;3.85;;;3.17;;
62844;SDS011;48929;47.910;20.390;2022-07-03T19:32:59;4.70;;;3.15;;
62844;SDS011;48929;47.910;20.390;2022-07-03T19:35:28;4.13;;;3.00;;
62844;SDS011;48929;47.910;20.390;2022-07-03T19:37:57;5.45;;;3.00;;
62844;SDS011;48929;47.910;20.390;2022-07-03T19:40:28;5.63;;;3.33;;
62844;SDS011;48929;47.910;20.390;2022-07-03T19:43:01;4.00;;;3.05;;
62844;SDS011;48929;47.910;20.390;2022-07-03T19:48:10;3.85;;;2.95;;
62844;SDS011;48929;47.910;20.390;2022-07-03T19:50:40;4.78;;;3.10;;
62844;SDS011;48929;47.910;20.390;2022-07-03T19:53:11;4.93;;;3.33;;
62844;SDS011;48929;47.910;20.390;2022-07-03T19:55:43;4.95;;;3.90;;
62844;SDS011;48929;47.910;20.390;2022-07-03T19:58:12;8.13;;;3.55;;
62844;SDS011;48929;47.910;20.390;2022-07-03T20:00:43;4.78;;;3.10;;
62844;SDS011;48929;47.910;20.390;2022-07-03T20:03:11;4.93;;;3.30;;
62844;SDS011;48929;47.910;20.390;2022-07-03T20:05:42;4.05;;;3.10;;
62844;SDS011;48929;47.910;20.390;2022-07-03T20:08:14;5.03;;;3.60;;
62844;SDS011;48929;47.910;20.390;2022-07-03T20:10:44;4.53;;;3.17;;
62844;SDS011;48929;47.910;20.390;2022-07-03T20:13:13;5.55;;;3.40;;
62844;SDS011;48929;47.910;20.390;2022-07-03T20:15:46;3.67;;;3.10;;
62844;SDS011;48929;47.910;20.390;2022-07-03T20:18:20;4.65;;;3.22;;
62844;SDS011;48929;47.910;20.390;2022-07-03T20:20:48;4.60;;;3.10;;
62844;SDS011;48929;47.910;20.390;2022-07-03T20:23:17;3.95;;;3.08;;
62844;SDS011;48929;47.910;20.390;2022-07-03T20:25:46;4.13;;;3.47;;
62844;SDS011;48929;47.910;20.390;2022-07-03T20:28:22;7.40;;;3.80;;
62844;SDS011;48929;47.910;20.390;2022-07-03T20:30:53;5.05;;;3.42;;
62844;SDS011;48929;47.910;20.390;2022-07-03T20:33:32;5.85;;;3.60;;
62844;SDS011;48929;47.910;20.390;2022-07-03T20:36:03;6.80;;;3.10;;
62844;SDS011;48929;47.910;20.390;2022-07-03T20:38:32;3.97;;;3.25;;
62844;SDS011;48929;47.910;20.390;2022-07-03T20:41:21;4.97;;;3.10;;
62844;SDS011;48929;47.910;20.390;2022-07-03T20:43:53;4.82;;;3.20;;
62844;SDS011;48929;47.910;20.390;2022-07-03T20:46:24;3.67;;;3.05;;
62844;SDS011;48929;47.910;20.390;2022-07-03T20:48:53;5.15;;;3.53;;
62844;SDS011;48929;47.910;20.390;2022-07-03T20:53:58;4.45;;;3.10;;
62844;SDS011;48929;47.910;20.390;2022-07-03T20:56:27;7.13;;;3.50;;
62844;SDS011;48929;47.910;20.390;2022-07-03T21:02:31;4.97;;;3.20;;
62844;SDS011;48929;47.910;20.390;2022-07-03T21:08:09;5.82;;;3.65;;
62844;SDS011;48929;47.910;20.390;2022-07-03T21:10:48;6.20;;;3.50;;
62844;SDS011;48929;47.910;20.390;2022-07-03T21:13:36;4.60;;;3.60;;
62844;SDS011;48929;47.910;20.390;2022-07-03T21:16:05;5.25;;;3.50;;
62844;SDS011;48929;47.910;20.390;2022-07-03T21:18:38;4.60;;;3.30;;
62844;SDS011;48929;47.910;20.390;2022-07-03T21:21:13;4.10;;;3.28;;
62844;SDS011;48929;47.910;20.390;2022-07-03T21:23:44;4.47;;;3.45;;
62844;SDS011;48929;47.910;20.390;2022-07-03T21:26:15;4.95;;;3.38;;